Accueil
METAR-TAF:

METAR-TAF

Aéroports :

Base aérienne

Tafraoui, Algérie

latitude: 35-32-33N, longitude: 000-31-56W, altitude: 112 m

Observation

Le bulletin a été fait il y a 1 heure et 28 minutes, à 17:00 UTC
Vent 28 kt de nord-est
Température 17°C
Humidité 55%
Pression 1012 hPa
Visibilité: 5000 m
Quelques nuages à une hauteur de 2600 ft
Nuages fragmentés à une hauteur de 2300 ft

METAR: DAOL 261700Z 04028KT 5000 FEW026 BKN023 17/08 Q1012

Heure: 19:28 (18:28 UTC)


TAF: absent

Observations et prévisions météorologiques de plus de 4000 aéroports (messages METAR et TAF).

Les stations disponibles sont représentées par des disques jaunes et rouges sur la carte.

Passer la souris dessus pour voir le nom de la station.

Cliquer dessus pour voir les observations et prévisions météorologiques.

Pour changer de carte: cliquez sur les boutons verts avec une croix noire pour zoomer, sur le bouton vert avec un tiret pour effectuer un zoom arrière, ou sur les flèches vertes pour les cartes adjacentes.


METAR-TAF: